Terminal Aerodrome Forecast
Issued by NWS

Home | Current Version | Previous Version | Text Only | Print | Product List | Glossary On
Versions: 1 2 3 4 5 6 7 8 9 10 11 12 13 14 15 16 17 18 19
000
FTUS43 KBIS 251247 AAA
TAFDIK
TAF AMD
KDIK 251247Z 2513/2612 25012KT P6SM BKN200
     FM251400 26012G22KT P6SM SCT200
     FM251600 26025G35KT P6SM BKN080
     FM260100 28015KT P6SM BKN060=

USA.gov is the U.S. government's official web portal to all federal, state and local government web resources and services.